sensor_id;sensor_type;location;lat;lon;timestamp;P1;durP1;ratioP1;P2;durP2;ratioP2
54517;SDS011;40423;53.176;6.002;2022-07-10T00:01:51;10.70;;;2.20;;
54517;SDS011;40423;53.176;6.002;2022-07-10T00:04:17;11.15;;;1.90;;
54517;SDS011;40423;53.176;6.002;2022-07-10T00:06:45;13.23;;;2.55;;
54517;SDS011;40423;53.176;6.002;2022-07-10T00:09:14;8.07;;;1.55;;
54517;SDS011;40423;53.176;6.002;2022-07-10T00:11:40;8.70;;;2.00;;
54517;SDS011;40423;53.176;6.002;2022-07-10T00:14:06;10.70;;;2.22;;
54517;SDS011;40423;53.176;6.002;2022-07-10T00:16:32;13.23;;;2.58;;
54517;SDS011;40423;53.176;6.002;2022-07-10T00:18:58;17.67;;;2.88;;
54517;SDS011;40423;53.176;6.002;2022-07-10T00:21:24;12.98;;;3.03;;
54517;SDS011;40423;53.176;6.002;2022-07-10T00:23:50;9.50;;;1.70;;
54517;SDS011;40423;53.176;6.002;2022-07-10T00:26:15;10.50;;;1.90;;
54517;SDS011;40423;53.176;6.002;2022-07-10T00:28:41;10.45;;;1.75;;
54517;SDS011;40423;53.176;6.002;2022-07-10T00:31:07;12.15;;;2.47;;
54517;SDS011;40423;53.176;6.002;2022-07-10T00:33:35;12.07;;;1.88;;
54517;SDS011;40423;53.176;6.002;2022-07-10T00:36:02;14.07;;;3.08;;
54517;SDS011;40423;53.176;6.002;2022-07-10T00:38:30;10.77;;;2.03;;
54517;SDS011;40423;53.176;6.002;2022-07-10T00:40:56;5.72;;;1.50;;
54517;SDS011;40423;53.176;6.002;2022-07-10T00:43:21;9.90;;;2.03;;
54517;SDS011;40423;53.176;6.002;2022-07-10T00:45:48;10.50;;;2.00;;
54517;SDS011;40423;53.176;6.002;2022-07-10T00:48:14;11.88;;;1.60;;
54517;SDS011;40423;53.176;6.002;2022-07-10T00:50:40;7.85;;;1.63;;
54517;SDS011;40423;53.176;6.002;2022-07-10T00:53:07;9.02;;;1.90;;
54517;SDS011;40423;53.176;6.002;2022-07-10T00:55:34;10.73;;;1.83;;
54517;SDS011;40423;53.176;6.002;2022-07-10T00:58:01;10.45;;;1.98;;
54517;SDS011;40423;53.176;6.002;2022-07-10T01:00:28;9.50;;;2.15;;
54517;SDS011;40423;53.176;6.002;2022-07-10T01:02:54;9.25;;;2.20;;
54517;SDS011;40423;53.176;6.002;2022-07-10T01:05:20;10.30;;;1.83;;
54517;SDS011;40423;53.176;6.002;2022-07-10T01:07:46;7.90;;;1.50;;
54517;SDS011;40423;53.176;6.002;2022-07-10T01:10:11;11.45;;;2.25;;
54517;SDS011;40423;53.176;6.002;2022-07-10T01:12:37;8.32;;;2.25;;
54517;SDS011;40423;53.176;6.002;2022-07-10T01:15:04;8.38;;;1.88;;
54517;SDS011;40423;53.176;6.002;2022-07-10T01:17:30;8.25;;;1.63;;
54517;SDS011;40423;53.176;6.002;2022-07-10T01:19:57;11.95;;;1.63;;
54517;SDS011;40423;53.176;6.002;2022-07-10T01:22:30;12.57;;;1.37;;
54517;SDS011;40423;53.176;6.002;2022-07-10T01:24:55;10.70;;;1.83;;
54517;SDS011;40423;53.176;6.002;2022-07-10T01:27:21;7.93;;;1.88;;
54517;SDS011;40423;53.176;6.002;2022-07-10T01:29:47;10.38;;;2.13;;
54517;SDS011;40423;53.176;6.002;2022-07-10T01:32:13;10.60;;;2.42;;
54517;SDS011;40423;53.176;6.002;2022-07-10T01:34:39;13.68;;;2.13;;
54517;SDS011;40423;53.176;6.002;2022-07-10T01:37:05;8.88;;;2.33;;
54517;SDS011;40423;53.176;6.002;2022-07-10T01:39:31;12.80;;;2.03;;
54517;SDS011;40423;53.176;6.002;2022-07-10T01:41:56;6.93;;;1.60;;
54517;SDS011;40423;53.176;6.002;2022-07-10T01:44:22;12.90;;;2.70;;
54517;SDS011;40423;53.176;6.002;2022-07-10T01:46:48;11.70;;;1.52;;
54517;SDS011;40423;53.176;6.002;2022-07-10T01:49:14;8.63;;;1.90;;
54517;SDS011;40423;53.176;6.002;2022-07-10T01:51:40;9.15;;;1.58;;
54517;SDS011;40423;53.176;6.002;2022-07-10T01:54:06;7.63;;;1.42;;
54517;SDS011;40423;53.176;6.002;2022-07-10T01:56:32;5.53;;;1.58;;
54517;SDS011;40423;53.176;6.002;2022-07-10T01:58:57;6.72;;;1.45;;
54517;SDS011;40423;53.176;6.002;2022-07-10T02:01:25;7.78;;;1.40;;
54517;SDS011;40423;53.176;6.002;2022-07-10T02:03:51;7.55;;;1.48;;
54517;SDS011;40423;53.176;6.002;2022-07-10T02:06:35;9.90;;;1.50;;
54517;SDS011;40423;53.176;6.002;2022-07-10T02:09:00;4.60;;;1.13;;
54517;SDS011;40423;53.176;6.002;2022-07-10T02:11:26;6.32;;;1.60;;
54517;SDS011;40423;53.176;6.002;2022-07-10T02:13:52;6.45;;;1.58;;
54517;SDS011;40423;53.176;6.002;2022-07-10T02:16:18;9.40;;;1.73;;
54517;SDS011;40423;53.176;6.002;2022-07-10T02:18:43;8.30;;;1.38;;
54517;SDS011;40423;53.176;6.002;2022-07-10T02:21:09;9.80;;;1.50;;
54517;SDS011;40423;53.176;6.002;2022-07-10T02:23:35;7.43;;;1.35;;
54517;SDS011;40423;53.176;6.002;2022-07-10T02:26:01;10.77;;;1.83;;
54517;SDS011;40423;53.176;6.002;2022-07-10T02:28:27;5.80;;;1.33;;
54517;SDS011;40423;53.176;6.002;2022-07-10T02:30:54;8.90;;;2.00;;
54517;SDS011;40423;53.176;6.002;2022-07-10T02:33:19;7.13;;;1.58;;
54517;SDS011;40423;53.176;6.002;2022-07-10T02:35:45;6.70;;;1.55;;
54517;SDS011;40423;53.176;6.002;2022-07-10T02:38:11;10.88;;;2.05;;
54517;SDS011;40423;53.176;6.002;2022-07-10T02:40:36;9.07;;;2.00;;
54517;SDS011;40423;53.176;6.002;2022-07-10T02:43:02;11.50;;;1.77;;
54517;SDS011;40423;53.176;6.002;2022-07-10T02:45:28;5.05;;;1.85;;
54517;SDS011;40423;53.176;6.002;2022-07-10T02:47:54;9.82;;;2.00;;
54517;SDS011;40423;53.176;6.002;2022-07-10T02:50:19;10.52;;;1.40;;
54517;SDS011;40423;53.176;6.002;2022-07-10T02:52:45;9.23;;;2.10;;
54517;SDS011;40423;53.176;6.002;2022-07-10T02:55:11;6.82;;;1.75;;
54517;SDS011;40423;53.176;6.002;2022-07-10T02:57:37;6.75;;;1.40;;
54517;SDS011;40423;53.176;6.002;2022-07-10T03:00:03;11.18;;;2.00;;
54517;SDS011;40423;53.176;6.002;2022-07-10T03:02:29;11.52;;;1.88;;
54517;SDS011;40423;53.176;6.002;2022-07-10T03:04:54;11.88;;;2.60;;
54517;SDS011;40423;53.176;6.002;2022-07-10T03:07:20;10.60;;;2.17;;
54517;SDS011;40423;53.176;6.002;2022-07-10T03:09:46;13.95;;;1.95;;
54517;SDS011;40423;53.176;6.002;2022-07-10T03:12:11;10.07;;;1.42;;
54517;SDS011;40423;53.176;6.002;2022-07-10T03:14:37;7.32;;;2.25;;
54517;SDS011;40423;53.176;6.002;2022-07-10T03:17:03;6.85;;;1.35;;
54517;SDS011;40423;53.176;6.002;2022-07-10T03:19:29;10.75;;;1.75;;
54517;SDS011;40423;53.176;6.002;2022-07-10T03:21:55;8.27;;;1.85;;
54517;SDS011;40423;53.176;6.002;2022-07-10T03:24:20;12.93;;;2.83;;
54517;SDS011;40423;53.176;6.002;2022-07-10T03:26:46;7.20;;;1.38;;
54517;SDS011;40423;53.176;6.002;2022-07-10T03:29:12;7.07;;;1.95;;
54517;SDS011;40423;53.176;6.002;2022-07-10T03:31:37;8.38;;;2.50;;
54517;SDS011;40423;53.176;6.002;2022-07-10T03:34:03;9.32;;;1.83;;
54517;SDS011;40423;53.176;6.002;2022-07-10T03:36:29;11.98;;;2.15;;
54517;SDS011;40423;53.176;6.002;2022-07-10T03:38:54;10.82;;;2.80;;
54517;SDS011;40423;53.176;6.002;2022-07-10T03:41:20;9.25;;;2.05;;
54517;SDS011;40423;53.176;6.002;2022-07-10T03:43:46;9.50;;;1.83;;
54517;SDS011;40423;53.176;6.002;2022-07-10T03:46:11;13.40;;;2.85;;
54517;SDS011;40423;53.176;6.002;2022-07-10T03:48:37;9.40;;;2.10;;
54517;SDS011;40423;53.176;6.002;2022-07-10T03:51:03;11.32;;;3.42;;
54517;SDS011;40423;53.176;6.002;2022-07-10T03:53:28;6.40;;;2.40;;
54517;SDS011;40423;53.176;6.002;2022-07-10T03:55:54;11.75;;;2.53;;
54517;SDS011;40423;53.176;6.002;2022-07-10T03:58:20;8.50;;;2.67;;
54517;SDS011;40423;53.176;6.002;2022-07-10T04:00:46;9.50;;;2.15;;
54517;SDS011;40423;53.176;6.002;2022-07-10T04:03:11;10.85;;;2.80;;
54517;SDS011;40423;53.176;6.002;2022-07-10T04:05:38;10.77;;;2.60;;
54517;SDS011;40423;53.176;6.002;2022-07-10T04:08:04;11.95;;;3.10;;
54517;SDS011;40423;53.176;6.002;2022-07-10T04:10:31;12.77;;;3.20;;
54517;SDS011;40423;53.176;6.002;2022-07-10T04:12:57;11.63;;;2.95;;
54517;SDS011;40423;53.176;6.002;2022-07-10T04:15:23;8.35;;;2.33;;
54517;SDS011;40423;53.176;6.002;2022-07-10T04:17:49;10.82;;;2.90;;
54517;SDS011;40423;53.176;6.002;2022-07-10T04:20:16;10.82;;;2.65;;
54517;SDS011;40423;53.176;6.002;2022-07-10T04:22:42;9.35;;;2.67;;
54517;SDS011;40423;53.176;6.002;2022-07-10T04:25:08;15.05;;;3.80;;
54517;SDS011;40423;53.176;6.002;2022-07-10T04:27:35;13.63;;;3.20;;
54517;SDS011;40423;53.176;6.002;2022-07-10T04:30:01;12.48;;;3.03;;
54517;SDS011;40423;53.176;6.002;2022-07-10T04:32:28;11.75;;;3.78;;
54517;SDS011;40423;53.176;6.002;2022-07-10T04:34:54;10.82;;;2.55;;
54517;SDS011;40423;53.176;6.002;2022-07-10T04:37:20;10.88;;;3.00;;
54517;SDS011;40423;53.176;6.002;2022-07-10T04:39:46;10.00;;;2.72;;
54517;SDS011;40423;53.176;6.002;2022-07-10T04:42:12;12.05;;;2.78;;
54517;SDS011;40423;53.176;6.002;2022-07-10T04:44:37;14.50;;;2.90;;
54517;SDS011;40423;53.176;6.002;2022-07-10T04:47:04;10.80;;;2.67;;
54517;SDS011;40423;53.176;6.002;2022-07-10T04:49:30;11.77;;;2.78;;
54517;SDS011;40423;53.176;6.002;2022-07-10T04:51:57;11.48;;;2.70;;
54517;SDS011;40423;53.176;6.002;2022-07-10T04:54:23;7.97;;;2.92;;
54517;SDS011;40423;53.176;6.002;2022-07-10T04:56:48;12.68;;;3.70;;
54517;SDS011;40423;53.176;6.002;2022-07-10T04:59:14;13.10;;;2.60;;
54517;SDS011;40423;53.176;6.002;2022-07-10T05:01:40;13.35;;;3.30;;
54517;SDS011;40423;53.176;6.002;2022-07-10T05:04:06;8.85;;;2.40;;
54517;SDS011;40423;53.176;6.002;2022-07-10T05:06:32;14.68;;;2.95;;
54517;SDS011;40423;53.176;6.002;2022-07-10T05:08:57;9.23;;;2.58;;
54517;SDS011;40423;53.176;6.002;2022-07-10T05:11:24;12.50;;;2.58;;
54517;SDS011;40423;53.176;6.002;2022-07-10T05:13:51;12.32;;;2.65;;
54517;SDS011;40423;53.176;6.002;2022-07-10T05:16:16;8.63;;;2.33;;
54517;SDS011;40423;53.176;6.002;2022-07-10T05:18:43;5.63;;;2.00;;
54517;SDS011;40423;53.176;6.002;2022-07-10T05:21:08;9.68;;;1.92;;
54517;SDS011;40423;53.176;6.002;2022-07-10T05:23:35;7.38;;;2.00;;
54517;SDS011;40423;53.176;6.002;2022-07-10T05:26:02;10.57;;;3.20;;
54517;SDS011;40423;53.176;6.002;2022-07-10T05:28:28;9.10;;;2.10;;
54517;SDS011;40423;53.176;6.002;2022-07-10T05:30:53;7.70;;;2.10;;
54517;SDS011;40423;53.176;6.002;2022-07-10T05:33:19;11.70;;;2.63;;
54517;SDS011;40423;53.176;6.002;2022-07-10T05:35:45;10.68;;;3.28;;
54517;SDS011;40423;53.176;6.002;2022-07-10T05:38:10;11.43;;;2.88;;
54517;SDS011;40423;53.176;6.002;2022-07-10T05:40:36;8.15;;;2.58;;
54517;SDS011;40423;53.176;6.002;2022-07-10T05:43:02;11.05;;;3.60;;
54517;SDS011;40423;53.176;6.002;2022-07-10T05:45:28;11.13;;;3.10;;
54517;SDS011;40423;53.176;6.002;2022-07-10T05:47:54;8.20;;;2.30;;
54517;SDS011;40423;53.176;6.002;2022-07-10T05:50:20;11.13;;;3.38;;
54517;SDS011;40423;53.176;6.002;2022-07-10T05:52:46;7.97;;;3.22;;
54517;SDS011;40423;53.176;6.002;2022-07-10T05:55:12;8.63;;;2.42;;
54517;SDS011;40423;53.176;6.002;2022-07-10T05:57:39;10.57;;;2.05;;
54517;SDS011;40423;53.176;6.002;2022-07-10T06:00:05;9.32;;;2.75;;
54517;SDS011;40423;53.176;6.002;2022-07-10T06:02:33;9.63;;;2.60;;
54517;SDS011;40423;53.176;6.002;2022-07-10T06:04:59;10.70;;;2.97;;
54517;SDS011;40423;53.176;6.002;2022-07-10T06:07:25;7.20;;;2.90;;
54517;SDS011;40423;53.176;6.002;2022-07-10T06:09:51;10.82;;;2.35;;
54517;SDS011;40423;53.176;6.002;2022-07-10T06:12:17;10.77;;;2.33;;
54517;SDS011;40423;53.176;6.002;2022-07-10T06:14:43;5.13;;;1.77;;
54517;SDS011;40423;53.176;6.002;2022-07-10T06:17:09;7.82;;;2.42;;
54517;SDS011;40423;53.176;6.002;2022-07-10T06:19:35;4.97;;;1.48;;
54517;SDS011;40423;53.176;6.002;2022-07-10T06:22:00;6.57;;;1.73;;
54517;SDS011;40423;53.176;6.002;2022-07-10T06:27:10;10.50;;;1.70;;
54517;SDS011;40423;53.176;6.002;2022-07-10T06:29:36;5.75;;;1.63;;
54517;SDS011;40423;53.176;6.002;2022-07-10T06:32:02;7.75;;;1.92;;
54517;SDS011;40423;53.176;6.002;2022-07-10T06:34:29;7.82;;;1.88;;
54517;SDS011;40423;53.176;6.002;2022-07-10T06:36:54;8.98;;;1.92;;
54517;SDS011;40423;53.176;6.002;2022-07-10T06:39:20;7.68;;;1.90;;
54517;SDS011;40423;53.176;6.002;2022-07-10T06:41:46;4.75;;;1.75;;
54517;SDS011;40423;53.176;6.002;2022-07-10T06:44:11;6.32;;;2.00;;
54517;SDS011;40423;53.176;6.002;2022-07-10T06:46:37;6.10;;;1.58;;
54517;SDS011;40423;53.176;6.002;2022-07-10T06:49:03;8.88;;;2.30;;
54517;SDS011;40423;53.176;6.002;2022-07-10T06:51:29;5.80;;;2.13;;
54517;SDS011;40423;53.176;6.002;2022-07-10T06:53:55;6.38;;;1.50;;
54517;SDS011;40423;53.176;6.002;2022-07-10T06:56:22;6.00;;;1.85;;
54517;SDS011;40423;53.176;6.002;2022-07-10T06:58:48;7.20;;;1.65;;
54517;SDS011;40423;53.176;6.002;2022-07-10T07:01:13;5.63;;;1.85;;
54517;SDS011;40423;53.176;6.002;2022-07-10T07:03:39;4.82;;;1.30;;
54517;SDS011;40423;53.176;6.002;2022-07-10T07:06:05;10.13;;;1.80;;
54517;SDS011;40423;53.176;6.002;2022-07-10T07:08:31;8.40;;;1.67;;
54517;SDS011;40423;53.176;6.002;2022-07-10T07:10:57;4.07;;;1.33;;
54517;SDS011;40423;53.176;6.002;2022-07-10T07:13:22;3.33;;;1.10;;
54517;SDS011;40423;53.176;6.002;2022-07-10T07:15:48;9.07;;;2.08;;
54517;SDS011;40423;53.176;6.002;2022-07-10T07:18:24;4.40;;;1.45;;
54517;SDS011;40423;53.176;6.002;2022-07-10T07:21:00;6.20;;;1.67;;
54517;SDS011;40423;53.176;6.002;2022-07-10T07:23:45;6.47;;;1.45;;
54517;SDS011;40423;53.176;6.002;2022-07-10T07:26:11;6.10;;;1.48;;
54517;SDS011;40423;53.176;6.002;2022-07-10T07:28:36;6.40;;;1.77;;
54517;SDS011;40423;53.176;6.002;2022-07-10T07:31:02;7.80;;;1.60;;
54517;SDS011;40423;53.176;6.002;2022-07-10T07:33:28;9.30;;;2.20;;
54517;SDS011;40423;53.176;6.002;2022-07-10T07:35:54;9.82;;;1.80;;
54517;SDS011;40423;53.176;6.002;2022-07-10T07:38:20;7.85;;;1.95;;
54517;SDS011;40423;53.176;6.002;2022-07-10T07:40:46;8.85;;;1.77;;
54517;SDS011;40423;53.176;6.002;2022-07-10T07:43:11;5.03;;;2.40;;
54517;SDS011;40423;53.176;6.002;2022-07-10T07:45:37;5.40;;;1.75;;
54517;SDS011;40423;53.176;6.002;2022-07-10T07:48:03;5.07;;;1.45;;
54517;SDS011;40423;53.176;6.002;2022-07-10T07:50:33;7.95;;;1.90;;
54517;SDS011;40423;53.176;6.002;2022-07-10T07:53:00;8.43;;;2.03;;
54517;SDS011;40423;53.176;6.002;2022-07-10T07:55:27;7.15;;;1.77;;
54517;SDS011;40423;53.176;6.002;2022-07-10T07:57:54;7.40;;;2.20;;
54517;SDS011;40423;53.176;6.002;2022-07-10T08:00:21;8.10;;;1.70;;
54517;SDS011;40423;53.176;6.002;2022-07-10T08:02:52;6.65;;;1.80;;
54517;SDS011;40423;53.176;6.002;2022-07-10T08:05:19;7.47;;;1.73;;
54517;SDS011;40423;53.176;6.002;2022-07-10T08:07:46;5.70;;;1.63;;
54517;SDS011;40423;53.176;6.002;2022-07-10T08:10:15;5.13;;;1.83;;
54517;SDS011;40423;53.176;6.002;2022-07-10T08:12:42;4.32;;;1.65;;
54517;SDS011;40423;53.176;6.002;2022-07-10T08:15:11;7.78;;;1.85;;
54517;SDS011;40423;53.176;6.002;2022-07-10T08:17:39;5.75;;;1.70;;
54517;SDS011;40423;53.176;6.002;2022-07-10T08:20:06;8.50;;;2.42;;
54517;SDS011;40423;53.176;6.002;2022-07-10T08:22:33;7.20;;;1.83;;
54517;SDS011;40423;53.176;6.002;2022-07-10T08:24:59;7.57;;;1.75;;
54517;SDS011;40423;53.176;6.002;2022-07-10T08:27:25;6.45;;;1.95;;
54517;SDS011;40423;53.176;6.002;2022-07-10T08:29:51;7.60;;;1.63;;
54517;SDS011;40423;53.176;6.002;2022-07-10T08:32:17;5.43;;;2.00;;
54517;SDS011;40423;53.176;6.002;2022-07-10T08:34:43;5.93;;;2.05;;
54517;SDS011;40423;53.176;6.002;2022-07-10T08:37:08;5.25;;;1.52;;
54517;SDS011;40423;53.176;6.002;2022-07-10T08:39:34;8.10;;;2.13;;
54517;SDS011;40423;53.176;6.002;2022-07-10T08:42:00;5.55;;;1.60;;
54517;SDS011;40423;53.176;6.002;2022-07-10T08:44:27;6.07;;;1.45;;
54517;SDS011;40423;53.176;6.002;2022-07-10T08:46:54;8.20;;;2.20;;
54517;SDS011;40423;53.176;6.002;2022-07-10T08:49:20;8.02;;;1.85;;
54517;SDS011;40423;53.176;6.002;2022-07-10T08:52:06;6.95;;;1.67;;
54517;SDS011;40423;53.176;6.002;2022-07-10T08:54:38;6.85;;;1.60;;
54517;SDS011;40423;53.176;6.002;2022-07-10T08:57:04;6.90;;;1.50;;
54517;SDS011;40423;53.176;6.002;2022-07-10T08:59:31;5.60;;;1.48;;
54517;SDS011;40423;53.176;6.002;2022-07-10T09:01:57;7.57;;;2.10;;
54517;SDS011;40423;53.176;6.002;2022-07-10T09:04:24;7.25;;;1.88;;
54517;SDS011;40423;53.176;6.002;2022-07-10T09:06:51;5.88;;;1.50;;
54517;SDS011;40423;53.176;6.002;2022-07-10T09:09:18;6.18;;;1.83;;
54517;SDS011;40423;53.176;6.002;2022-07-10T09:11:44;4.80;;;1.77;;
54517;SDS011;40423;53.176;6.002;2022-07-10T09:14:10;7.82;;;1.95;;
54517;SDS011;40423;53.176;6.002;2022-07-10T09:16:40;10.70;;;1.98;;
54517;SDS011;40423;53.176;6.002;2022-07-10T09:21:45;7.30;;;2.00;;
54517;SDS011;40423;53.176;6.002;2022-07-10T09:24:11;6.65;;;2.08;;
54517;SDS011;40423;53.176;6.002;2022-07-10T09:26:38;3.63;;;1.60;;
54517;SDS011;40423;53.176;6.002;2022-07-10T09:29:10;4.60;;;2.08;;
54517;SDS011;40423;53.176;6.002;2022-07-10T09:31:50;5.43;;;1.88;;
54517;SDS011;40423;53.176;6.002;2022-07-10T09:34:17;8.20;;;1.95;;
54517;SDS011;40423;53.176;6.002;2022-07-10T09:36:43;7.47;;;1.83;;
54517;SDS011;40423;53.176;6.002;2022-07-10T09:39:09;8.13;;;1.90;;
54517;SDS011;40423;53.176;6.002;2022-07-10T09:41:35;5.97;;;2.00;;
54517;SDS011;40423;53.176;6.002;2022-07-10T09:44:04;5.32;;;2.08;;
54517;SDS011;40423;53.176;6.002;2022-07-10T09:46:39;5.93;;;1.70;;
54517;SDS011;40423;53.176;6.002;2022-07-10T09:49:08;6.20;;;1.73;;
54517;SDS011;40423;53.176;6.002;2022-07-10T09:51:37;5.20;;;1.23;;
54517;SDS011;40423;53.176;6.002;2022-07-10T09:54:04;7.75;;;1.92;;
54517;SDS011;40423;53.176;6.002;2022-07-10T09:59:19;8.77;;;2.20;;
54517;SDS011;40423;53.176;6.002;2022-07-10T10:01:49;10.00;;;2.03;;
54517;SDS011;40423;53.176;6.002;2022-07-10T10:04:16;9.93;;;1.83;;
54517;SDS011;40423;53.176;6.002;2022-07-10T10:06:50;7.10;;;1.73;;
54517;SDS011;40423;53.176;6.002;2022-07-10T10:09:26;8.05;;;1.80;;
54517;SDS011;40423;53.176;6.002;2022-07-10T10:12:02;5.80;;;1.77;;
54517;SDS011;40423;53.176;6.002;2022-07-10T10:14:32;7.88;;;1.88;;
54517;SDS011;40423;53.176;6.002;2022-07-10T10:16:59;3.13;;;1.50;;
54517;SDS011;40423;53.176;6.002;2022-07-10T10:19:25;9.35;;;2.08;;
54517;SDS011;40423;53.176;6.002;2022-07-10T10:22:11;5.03;;;1.70;;
54517;SDS011;40423;53.176;6.002;2022-07-10T10:24:38;7.78;;;2.38;;
54517;SDS011;40423;53.176;6.002;2022-07-10T10:27:05;5.50;;;1.70;;
54517;SDS011;40423;53.176;6.002;2022-07-10T10:29:32;7.05;;;1.52;;
54517;SDS011;40423;53.176;6.002;2022-07-10T10:32:00;6.65;;;1.70;;
54517;SDS011;40423;53.176;6.002;2022-07-10T10:34:46;7.05;;;2.05;;
54517;SDS011;40423;53.176;6.002;2022-07-10T10:37:28;4.53;;;1.88;;
54517;SDS011;40423;53.176;6.002;2022-07-10T10:40:08;4.85;;;1.60;;
54517;SDS011;40423;53.176;6.002;2022-07-10T10:42:36;10.85;;;1.85;;
54517;SDS011;40423;53.176;6.002;2022-07-10T10:47:56;7.55;;;1.90;;
54517;SDS011;40423;53.176;6.002;2022-07-10T10:50:45;7.07;;;2.30;;
54517;SDS011;40423;53.176;6.002;2022-07-10T10:53:21;7.32;;;1.90;;
54517;SDS011;40423;53.176;6.002;2022-07-10T11:01:03;5.47;;;1.42;;
54517;SDS011;40423;53.176;6.002;2022-07-10T11:03:29;5.72;;;1.60;;
54517;SDS011;40423;53.176;6.002;2022-07-10T11:05:55;7.60;;;2.22;;
54517;SDS011;40423;53.176;6.002;2022-07-10T11:08:37;8.57;;;2.05;;
54517;SDS011;40423;53.176;6.002;2022-07-10T11:13:56;8.18;;;2.17;;
54517;SDS011;40423;53.176;6.002;2022-07-10T11:16:22;6.38;;;1.50;;
54517;SDS011;40423;53.176;6.002;2022-07-10T11:18:53;7.10;;;2.05;;
54517;SDS011;40423;53.176;6.002;2022-07-10T11:21:23;4.40;;;1.67;;
54517;SDS011;40423;53.176;6.002;2022-07-10T11:24:03;10.23;;;1.67;;
54517;SDS011;40423;53.176;6.002;2022-07-10T11:27:20;6.05;;;1.65;;
54517;SDS011;40423;53.176;6.002;2022-07-10T11:29:28;4.32;;;1.40;;
54517;SDS011;40423;53.176;6.002;2022-07-10T11:32:03;5.32;;;1.77;;
54517;SDS011;40423;53.176;6.002;2022-07-10T11:34:35;5.22;;;1.65;;
54517;SDS011;40423;53.176;6.002;2022-07-10T11:37:01;6.70;;;1.45;;
54517;SDS011;40423;53.176;6.002;2022-07-10T11:39:38;6.00;;;1.60;;
54517;SDS011;40423;53.176;6.002;2022-07-10T11:42:04;7.88;;;1.63;;
54517;SDS011;40423;53.176;6.002;2022-07-10T11:44:30;7.60;;;1.45;;
54517;SDS011;40423;53.176;6.002;2022-07-10T11:46:56;3.58;;;1.50;;
54517;SDS011;40423;53.176;6.002;2022-07-10T11:49:23;6.47;;;1.30;;
54517;SDS011;40423;53.176;6.002;2022-07-10T11:51:49;3.53;;;1.40;;
54517;SDS011;40423;53.176;6.002;2022-07-10T11:54:15;7.97;;;1.55;;
54517;SDS011;40423;53.176;6.002;2022-07-10T11:56:47;4.47;;;1.50;;
54517;SDS011;40423;53.176;6.002;2022-07-10T11:59:28;4.45;;;1.50;;
54517;SDS011;40423;53.176;6.002;2022-07-10T12:01:54;8.07;;;1.70;;
54517;SDS011;40423;53.176;6.002;2022-07-10T12:04:24;4.50;;;1.50;;
54517;SDS011;40423;53.176;6.002;2022-07-10T12:06:51;6.38;;;1.73;;
54517;SDS011;40423;53.176;6.002;2022-07-10T12:09:19;9.23;;;2.20;;
54517;SDS011;40423;53.176;6.002;2022-07-10T12:12:00;3.95;;;1.42;;
54517;SDS011;40423;53.176;6.002;2022-07-10T12:14:31;5.60;;;1.38;;
54517;SDS011;40423;53.176;6.002;2022-07-10T12:16:57;6.78;;;1.63;;
54517;SDS011;40423;53.176;6.002;2022-07-10T12:19:25;5.68;;;1.75;;
54517;SDS011;40423;53.176;6.002;2022-07-10T12:21:56;6.13;;;1.65;;
54517;SDS011;40423;53.176;6.002;2022-07-10T12:24:23;3.85;;;1.67;;
54517;SDS011;40423;53.176;6.002;2022-07-10T12:26:50;3.92;;;1.50;;
54517;SDS011;40423;53.176;6.002;2022-07-10T12:29:24;3.95;;;1.35;;
54517;SDS011;40423;53.176;6.002;2022-07-10T12:31:52;7.32;;;1.70;;
54517;SDS011;40423;53.176;6.002;2022-07-10T12:34:20;5.82;;;1.55;;
54517;SDS011;40423;53.176;6.002;2022-07-10T12:37:08;5.10;;;1.55;;
54517;SDS011;40423;53.176;6.002;2022-07-10T12:39:38;4.40;;;1.17;;
54517;SDS011;40423;53.176;6.002;2022-07-10T12:42:23;6.75;;;1.90;;
54517;SDS011;40423;53.176;6.002;2022-07-10T12:44:53;7.85;;;2.08;;
54517;SDS011;40423;53.176;6.002;2022-07-10T12:47:20;5.47;;;1.70;;
54517;SDS011;40423;53.176;6.002;2022-07-10T12:57:46;4.10;;;1.27;;
54517;SDS011;40423;53.176;6.002;2022-07-10T13:00:21;2.55;;;1.20;;
54517;SDS011;40423;53.176;6.002;2022-07-10T13:02:48;5.53;;;1.58;;
54517;SDS011;40423;53.176;6.002;2022-07-10T13:08:11;2.13;;;1.20;;
54517;SDS011;40423;53.176;6.002;2022-07-10T13:10:44;5.07;;;1.40;;
54517;SDS011;40423;53.176;6.002;2022-07-10T13:13:12;5.50;;;1.80;;
54517;SDS011;40423;53.176;6.002;2022-07-10T13:15:38;3.13;;;1.00;;
54517;SDS011;40423;53.176;6.002;2022-07-10T13:18:15;4.32;;;2.15;;
54517;SDS011;40423;53.176;6.002;2022-07-10T13:20:43;3.50;;;1.00;;
54517;SDS011;40423;53.176;6.002;2022-07-10T13:23:11;2.47;;;0.98;;
54517;SDS011;40423;53.176;6.002;2022-07-10T13:25:37;2.33;;;1.35;;
54517;SDS011;40423;53.176;6.002;2022-07-10T13:28:04;3.00;;;1.50;;
54517;SDS011;40423;53.176;6.002;2022-07-10T13:30:32;3.08;;;1.10;;
54517;SDS011;40423;53.176;6.002;2022-07-10T13:33:00;6.00;;;1.73;;
54517;SDS011;40423;53.176;6.002;2022-07-10T13:35:27;3.28;;;1.25;;
54517;SDS011;40423;53.176;6.002;2022-07-10T13:37:54;7.60;;;1.70;;
54517;SDS011;40423;53.176;6.002;2022-07-10T13:40:21;3.83;;;1.20;;
54517;SDS011;40423;53.176;6.002;2022-07-10T13:42:46;4.63;;;1.33;;
54517;SDS011;40423;53.176;6.002;2022-07-10T13:45:12;3.80;;;1.80;;
54517;SDS011;40423;53.176;6.002;2022-07-10T13:47:38;4.18;;;1.35;;
54517;SDS011;40423;53.176;6.002;2022-07-10T13:50:04;5.50;;;1.52;;
54517;SDS011;40423;53.176;6.002;2022-07-10T13:52:30;6.13;;;1.50;;
54517;SDS011;40423;53.176;6.002;2022-07-10T13:54:55;6.85;;;1.40;;
54517;SDS011;40423;53.176;6.002;2022-07-10T13:57:22;5.63;;;1.10;;
54517;SDS011;40423;53.176;6.002;2022-07-10T13:59:48;7.25;;;1.25;;
54517;SDS011;40423;53.176;6.002;2022-07-10T14:02:14;6.15;;;1.52;;
54517;SDS011;40423;53.176;6.002;2022-07-10T14:04:39;5.22;;;1.40;;
54517;SDS011;40423;53.176;6.002;2022-07-10T14:07:06;4.93;;;1.70;;
54517;SDS011;40423;53.176;6.002;2022-07-10T14:09:31;3.70;;;1.20;;
54517;SDS011;40423;53.176;6.002;2022-07-10T14:11:57;4.43;;;1.30;;
54517;SDS011;40423;53.176;6.002;2022-07-10T14:14:23;2.75;;;1.20;;
54517;SDS011;40423;53.176;6.002;2022-07-10T14:16:49;5.60;;;1.50;;
54517;SDS011;40423;53.176;6.002;2022-07-10T14:19:16;3.38;;;1.30;;
54517;SDS011;40423;53.176;6.002;2022-07-10T14:21:42;4.70;;;1.80;;
54517;SDS011;40423;53.176;6.002;2022-07-10T14:24:08;5.47;;;1.90;;
54517;SDS011;40423;53.176;6.002;2022-07-10T14:26:34;7.88;;;1.88;;
54517;SDS011;40423;53.176;6.002;2022-07-10T14:29:03;8.23;;;2.53;;
54517;SDS011;40423;53.176;6.002;2022-07-10T14:31:29;11.85;;;1.88;;
54517;SDS011;40423;53.176;6.002;2022-07-10T14:33:55;3.95;;;1.60;;
54517;SDS011;40423;53.176;6.002;2022-07-10T14:36:21;4.32;;;2.13;;
54517;SDS011;40423;53.176;6.002;2022-07-10T14:38:53;7.72;;;2.13;;
54517;SDS011;40423;53.176;6.002;2022-07-10T14:41:20;4.03;;;1.58;;
54517;SDS011;40423;53.176;6.002;2022-07-10T14:43:46;13.13;;;2.80;;
54517;SDS011;40423;53.176;6.002;2022-07-10T14:46:12;6.68;;;1.83;;
54517;SDS011;40423;53.176;6.002;2022-07-10T14:48:37;8.32;;;2.28;;
54517;SDS011;40423;53.176;6.002;2022-07-10T14:51:03;6.80;;;1.90;;
54517;SDS011;40423;53.176;6.002;2022-07-10T14:53:29;4.43;;;1.60;;
54517;SDS011;40423;53.176;6.002;2022-07-10T14:55:59;7.15;;;2.28;;
54517;SDS011;40423;53.176;6.002;2022-07-10T14:58:25;4.45;;;2.17;;
54517;SDS011;40423;53.176;6.002;2022-07-10T15:00:51;6.03;;;2.25;;
54517;SDS011;40423;53.176;6.002;2022-07-10T15:03:17;6.07;;;2.35;;
54517;SDS011;40423;53.176;6.002;2022-07-10T15:05:42;6.18;;;2.42;;
54517;SDS011;40423;53.176;6.002;2022-07-10T15:08:08;3.95;;;2.30;;
54517;SDS011;40423;53.176;6.002;2022-07-10T15:10:34;5.68;;;2.63;;
54517;SDS011;40423;53.176;6.002;2022-07-10T15:13:00;6.75;;;2.15;;
54517;SDS011;40423;53.176;6.002;2022-07-10T15:15:29;6.47;;;1.90;;
54517;SDS011;40423;53.176;6.002;2022-07-10T15:17:58;9.40;;;2.40;;